Economy, Missouri
Current Conditions -  °F | °C
As of 1:55 AM on Wednesday 26 Nov 2014 (Local Time) from KIRK Reporting Station
Few Clouds Few Clouds  
Wind Chill: 20°   Ceiling: Unl
Heat Index: 28°   Visibility: 10mi
Dew Point: 21°   Wind: 8mph
Humidity: 75%   Direction: 150°SSE
Pressure: 30.01"   Gusts: NA
Location:  39.9265°N, 92.4529°W
Report Text: KIRK 260755Z AUTO 15007KT 10SM FEW120 M02/M06 A3001 RMK AO2 SLP175 T10221061
Loading
Personal Weather Stations






























Interactive Weather Map New forecast layout! Learn more

10-Day Weather Forecast

Advertisements
Track Severe Weather on mobile